createdAt,value
2019-02-15T00:02:00.966Z,53.9
2019-02-15T00:07:09.986Z,53.8
2019-02-15T00:12:18.583Z,53.7
2019-02-15T00:17:28.231Z,53.7
2019-02-15T00:22:45.149Z,53.6
2019-02-15T00:28:00.005Z,53.6
2019-02-15T00:33:11.526Z,53.5
2019-02-15T00:38:21.166Z,53.4
2019-02-15T00:43:40.081Z,53.4
2019-02-15T00:48:52.154Z,53.3
2019-02-15T00:54:00.734Z,53.2
2019-02-15T00:59:18.383Z,53.1
2019-02-15T01:04:26.920Z,53.1
2019-02-15T01:09:35.442Z,53
2019-02-15T01:14:43.985Z,52.9
2019-02-15T01:19:53.601Z,52.9
2019-02-15T01:25:02.197Z,52.7
2019-02-15T01:30:10.737Z,52.7
2019-02-15T01:35:19.237Z,52.6
2019-02-15T01:40:27.769Z,52.6
2019-02-15T01:45:39.291Z,52.5
2019-02-15T01:50:47.895Z,52.4
2019-02-15T01:56:00.512Z,52.4
2019-02-15T02:01:10.712Z,52.3
2019-02-15T02:06:19.280Z,52.2
2019-02-15T02:16:36.357Z,52.1
2019-02-15T02:21:38.280Z,52.1
2019-02-15T02:26:38.702Z,52
2019-02-15T02:31:40.764Z,51.9
2019-02-15T02:36:42.805Z,51.9
2019-02-15T02:41:44.767Z,51.8
2019-02-15T02:46:47.728Z,51.7
2019-02-15T02:51:49.622Z,51.7
2019-02-15T02:56:52.791Z,51.6
2019-02-15T03:01:59.830Z,51.5
2019-02-15T03:07:01.821Z,51.4
2019-02-15T03:12:03.890Z,51.4
2019-02-15T03:17:08.549Z,51.3
2019-02-15T03:22:14.843Z,51.2
2019-02-15T03:27:27.555Z,51.2
2019-02-15T03:32:30.079Z,51.1
2019-02-15T03:37:32.190Z,51.1
2019-02-15T03:42:34.384Z,51
2019-02-15T03:47:36.348Z,50.9
2019-02-15T03:52:41.081Z,50.9
2019-02-15T04:02:48.842Z,50.8
2019-02-15T04:07:52.120Z,50.6
2019-02-15T04:12:54.038Z,50.6
2019-02-15T04:17:58.214Z,50.6
2019-02-15T04:23:02.919Z,50.4
2019-02-15T04:28:08.256Z,50.4
2019-02-15T04:33:10.124Z,50.3
2019-02-15T04:38:12.103Z,50.2
2019-02-15T04:43:14.009Z,50.2
2019-02-15T04:48:17.373Z,50.1
2019-02-15T04:53:20.348Z,50.1
2019-02-15T04:58:23.438Z,50
2019-02-15T05:08:31.747Z,49.9
2019-02-15T05:13:33.625Z,49.8
2019-02-15T05:18:35.553Z,49.8
2019-02-15T05:23:38.551Z,49.7
2019-02-15T05:28:41.416Z,49.6
2019-02-15T05:33:43.291Z,49.6
2019-02-15T05:38:48.056Z,49.5
2019-02-15T05:43:50.542Z,49.4
2019-02-15T05:48:52.664Z,49.4
2019-02-15T05:54:03.409Z,49.3
2019-02-15T05:59:05.729Z,49.2
2019-02-15T06:04:10.574Z,49.2
2019-02-15T06:09:14.877Z,49.1
2019-02-15T06:14:20.729Z,49.1
2019-02-15T06:19:22.803Z,49
2019-02-15T06:24:24.684Z,48.9
2019-02-15T06:29:35.546Z,48.9
2019-02-15T06:34:37.934Z,48.8
2019-02-15T06:39:39.771Z,48.7
2019-02-15T06:44:41.708Z,48.7
2019-02-15T06:49:46.476Z,48.7
2019-02-15T06:54:51.371Z,48.6
2019-02-15T06:59:53.237Z,48.6
2019-02-15T07:04:55.105Z,48.5
2019-02-15T07:10:00.229Z,48.4
2019-02-15T07:15:02.149Z,48.4
2019-02-15T07:20:06.886Z,48.3
2019-02-15T07:25:08.722Z,48.3
2019-02-15T07:30:10.539Z,48.2
2019-02-15T07:35:12.341Z,48.1
2019-02-15T07:40:14.215Z,48.1
2019-02-15T07:45:17.723Z,48
2019-02-15T07:50:19.911Z,47.9
2019-02-15T07:55:21.739Z,47.9
2019-02-15T08:00:23.668Z,47.9
2019-02-15T08:05:25.442Z,47.8
2019-02-15T08:10:28.235Z,47.7
2019-02-15T08:15:35.812Z,47.7
2019-02-15T08:20:38.021Z,47.6
2019-02-15T08:25:39.772Z,47.6
2019-02-15T08:30:41.588Z,47.5
2019-02-15T08:35:50.431Z,47.4
2019-02-15T08:40:53.495Z,47.4
2019-02-15T08:46:00.675Z,47.4
2019-02-15T08:51:06.541Z,47.3
2019-02-15T08:56:10.603Z,47.2
2019-02-15T09:01:12.970Z,47.2
2019-02-15T09:06:21.552Z,47.1
2019-02-15T09:11:23.255Z,47.1
2019-02-15T09:16:25.079Z,47
2019-02-15T09:21:27.708Z,46.9
2019-02-15T09:31:53.989Z,46.9
2019-02-15T09:37:05.738Z,46.8
2019-02-15T09:42:07.804Z,46.7
2019-02-15T09:47:12.331Z,46.7
2019-02-15T09:52:14.186Z,46.6
2019-02-15T09:57:19.856Z,46.6
2019-02-15T10:02:22.949Z,46.6
2019-02-15T10:07:26.342Z,46.5
2019-02-15T10:12:28.089Z,46.4
2019-02-15T10:17:30.054Z,46.4
2019-02-15T10:22:32.094Z,46.3
2019-02-15T10:27:39.133Z,46.3
2019-02-15T10:32:41.024Z,46.2
2019-02-15T10:37:45.772Z,46.2
2019-02-15T10:42:47.540Z,46.1
2019-02-15T10:47:49.423Z,46.1
2019-02-15T10:52:54.179Z,46
2019-02-15T11:03:05.140Z,45.9
2019-02-15T11:08:06.929Z,45.9
2019-02-15T11:13:12.701Z,45.8
2019-02-15T11:18:18.324Z,45.8
2019-02-15T11:28:26.422Z,45.7
2019-02-15T11:33:29.141Z,45.6
2019-02-15T11:38:37.597Z,45.6
2019-02-15T11:43:39.382Z,45.5
2019-02-15T11:48:41.128Z,45.5
2019-02-15T11:53:43.949Z,45.4
2019-02-15T11:59:00.482Z,45.4
2019-02-15T12:04:02.210Z,45.3
2019-02-15T12:09:06.895Z,45.2
2019-02-15T12:14:08.691Z,45.2
2019-02-15T12:19:16.566Z,45.2
2019-02-15T12:24:18.617Z,45.1
2019-02-15T12:29:23.272Z,45.1
2019-02-15T12:34:46.962Z,45.1
2019-02-15T12:39:50.845Z,45
2019-02-15T12:44:55.611Z,44.9
2019-02-15T12:50:00.873Z,44.9
2019-02-15T12:55:15.342Z,44.9
2019-02-15T13:00:18.080Z,44.8
2019-02-15T13:05:19.860Z,44.7
2019-02-15T13:10:22.654Z,44.7
2019-02-15T13:15:24.354Z,44.7
2019-02-15T13:20:28.333Z,44.6
2019-02-15T13:25:36.667Z,44.6
2019-02-15T13:30:41.711Z,44.6
2019-02-15T13:35:43.438Z,44.5
2019-02-15T13:40:45.129Z,44.4
2019-02-15T13:45:46.854Z,44.4
2019-02-15T13:50:52.424Z,44.4
2019-02-15T13:55:58.990Z,44.3
2019-02-15T14:01:04.383Z,44.2
2019-02-15T14:06:06.213Z,44.2
2019-02-15T14:11:11.889Z,44.2
2019-02-15T14:16:26.633Z,44.1
2019-02-15T14:26:37.079Z,44.1
2019-02-15T14:31:39.319Z,44
2019-02-15T14:36:42.205Z,43.9
2019-02-15T14:41:45.647Z,43.9
2019-02-15T14:46:50.323Z,43.9
2019-02-15T14:51:51.982Z,43.8
2019-02-15T14:56:53.804Z,43.7
2019-02-15T15:07:01.721Z,43.7
2019-02-15T15:12:06.375Z,43.7
2019-02-15T15:17:09.255Z,43.6
2019-02-15T15:22:11.522Z,43.6
2019-02-15T15:27:13.342Z,43.6
2019-02-15T15:32:14.948Z,43.5
2019-02-15T15:37:25.713Z,43.4
2019-02-15T15:42:28.630Z,43.4
2019-02-15T15:47:33.106Z,43.4
2019-02-15T15:52:37.643Z,43.3
2019-02-15T15:57:39.366Z,43.3
2019-02-15T16:02:41.061Z,43.3
2019-02-15T16:07:44.094Z,43.2
2019-02-15T16:12:45.786Z,43.2
2019-02-15T16:17:47.487Z,43.1
2019-02-15T16:22:58.389Z,43.1
2019-02-15T16:28:00.848Z,43.1
2019-02-15T16:33:05.494Z,43
2019-02-15T16:38:07.232Z,42.9
2019-02-15T16:43:08.996Z,42.9
2019-02-15T16:48:14.868Z,42.9
2019-02-15T16:53:20.027Z,42.9
2019-02-15T16:58:25.624Z,42.8
2019-02-15T17:03:31.231Z,42.7
2019-02-15T17:08:35.641Z,42.7
2019-02-15T17:13:38.896Z,42.7
2019-02-15T17:18:51.317Z,42.6
2019-02-15T17:24:15.639Z,42.6
2019-02-15T17:29:42.126Z,42.6
2019-02-15T17:34:43.813Z,42.6
2019-02-15T17:39:45.523Z,44.6
2019-02-15T17:44:47.290Z,46.1
2019-02-15T17:49:49.141Z,47.2
2019-02-15T17:54:54.003Z,48.3
2019-02-15T17:59:55.865Z,49.1
2019-02-15T18:04:58.132Z,49.9
2019-02-15T18:10:09.270Z,50.6
2019-02-15T18:15:13.827Z,51.2
2019-02-15T18:20:18.472Z,51.8
2019-02-15T18:25:22.392Z,52.4
2019-02-15T18:35:31.506Z,53.3
2019-02-15T18:40:37.334Z,53.6
2019-02-15T18:45:50.848Z,53.8
2019-02-15T18:50:53.616Z,53.9
2019-02-15T18:55:56.631Z,54.1
2019-02-15T19:00:59.887Z,54.1
2019-02-15T19:06:02.613Z,54.3
2019-02-15T19:11:04.581Z,54.2
2019-02-15T19:16:07.948Z,54.4
2019-02-15T19:21:10.097Z,54.4
2019-02-15T19:26:15.486Z,54.4
2019-02-15T19:31:17.514Z,54.4
2019-02-15T19:36:19.489Z,54.3
2019-02-15T19:41:21.553Z,54.5
2019-02-15T19:46:24.960Z,54.5
2019-02-15T19:51:30.901Z,54.4
2019-02-15T19:56:32.926Z,54.4
2019-02-15T20:01:39.861Z,54.4
2019-02-15T20:06:41.991Z,54.3
2019-02-15T20:11:44.013Z,54.4
2019-02-15T20:16:49.918Z,54.4
2019-02-15T20:21:52.027Z,54.4
2019-02-15T20:26:54.253Z,54.4
2019-02-15T20:31:58.947Z,54.3
2019-02-15T20:37:01.034Z,54.2
2019-02-15T20:42:03.325Z,54.2
2019-02-15T20:47:06.153Z,54.2
2019-02-15T20:52:09.140Z,54.1
2019-02-15T20:57:11.726Z,54.1
2019-02-15T21:02:16.433Z,54.1
2019-02-15T21:07:18.440Z,54
2019-02-15T21:12:24.264Z,53.9
2019-02-15T21:17:56.141Z,53.8
2019-02-15T21:22:59.330Z,53.8
2019-02-15T21:28:01.395Z,53.7
2019-02-15T21:33:26.313Z,53.7
2019-02-15T21:38:32.214Z,53.6
2019-02-15T22:04:00.635Z,53.4
2019-02-15T22:19:15.867Z,53.3
2019-02-15T22:24:19.610Z,53.3
2019-02-15T22:29:22.583Z,53.2
2019-02-15T22:34:44.480Z,53.1
2019-02-15T22:39:47.437Z,53.1
2019-02-15T22:44:52.351Z,53
2019-02-15T22:49:54.760Z,53
2019-02-15T22:54:56.674Z,52.9
2019-02-15T23:00:01.033Z,52.9
2019-02-15T23:05:13.317Z,52.9
2019-02-15T23:10:17.957Z,52.8
2019-02-15T23:15:20.844Z,52.7
2019-02-15T23:20:22.932Z,52.7
2019-02-15T23:25:25.242Z,52.7
2019-02-15T23:30:30.034Z,52.6
2019-02-15T23:35:32.098Z,52.6
2019-02-15T23:40:34.063Z,52.5
2019-02-15T23:45:39.005Z,52.4
2019-02-15T23:50:53.874Z,52.4
2019-02-15T23:55:58.058Z,52.4
